Jean Philippe Monclin

Jean Philippe Monclin

Statistiques 2026

  • Courses courues : 76
  • Nb de victoires : 17
  • Nb de places : 35
  • Écart gagnant : 2
  • Réussite à la gagne : 22%
  • Réussite à la place : 46%
Musique : 0a 2a 1a 0a 4a 0a 4a 1a 6a Da 3a Da 3a 1a 1a 3a 5a 2a
DateRangCatégorieAlloc.Dist.HippodromeChevalRed. KmSpé.
15/02/20 8 Trot 31 000€ 2 875m Laval Alex Trojborg 1'15"6 Attelé
15/02/20 1 Trot 18 000€ 2 225m Laval Gagnant 1'17"5 Attelé
15/02/20 4 Trot 13 000€ 2 225m Laval Hidalgo Dairpet 1'18"2 Attelé
28/02/20 6 Trot 18 000€ 2 875m Laval Folgoet Rose 1'17"4 Attelé
28/02/20 5 Trot 15 000€ 2 225m Laval Hermione des Tours 1'17"4 Attelé
05/03/20 2 Trot 20 000€ 2 875m Laval Felicitations 1'17"1 Attelé
05/03/20 D Trot 23 000€ 2 875m Laval Emma d'Amour Attelé
05/03/20 0 Trot 31 000€ 2 875m Laval Duc de Christal Attelé
11/03/20 D Trot 49 000€ 2 875m Laval Clara du Pontseuil Attelé lire

A été sanctionnée avant la fin du premier tour alors qu'elle était au sein du peloton.

11/03/20 5 Trot 16 000€ 2 225m Laval Hermione des Tours 1'17"4 Attelé lire

Une des animatrices, n'a plafonné que pour finir.

11/03/20 9 Trot 18 000€ 2 875m Laval Goliath Atout 1'17"6 Attelé lire

Un des animateurs, a complètement cédé pour finir.

11/03/20 4 Trot 20 000€ 2 875m Laval Fandango la Nuit 1'15"1 Attelé lire

Tout de suite à la pointe du combat, a bien tenu sa partie jusqu'au bout.

29/05/20 5 Trot 44 000€ 2 225m Laval Hope On Victory 1'16"0 Attelé
29/05/20 D Trot 37 000€ 2 875m Laval Duc du Goutier Attelé
09/03/17 7 Trot 23 000€ 2 900m Laval Balledonia 1'14"5 Attelé
09/03/17 D Trot 21 000€ 2 875m Laval Cybele Jheq Attelé
09/03/17 D Trot 18 000€ 2 875m Laval Demolition Dream Attelé
09/03/17 2 Trot 16 000€ 2 225m Laval Edelweiss Park 1'16"3 Attelé
07/04/17 1 Trot 16 000€ 2 875m Laval Claudius 1'15"4 Attelé
07/04/17 2 Trot 15 000€ 2 875m Laval Deveria 1'16"9 Attelé
07/04/17 8 Trot 12 000€ 2 875m Laval Explosion 1'19"4 Attelé
07/04/17 4 Trot 22 000€ 2 875m Laval Primula Brazza' 1'15"6 Attelé
07/04/17 1 Trot 12 000€ 2 875m Laval Easy Cash 1'18"1 Attelé
27/04/17 D Trot 21 000€ 2 875m Laval Balthazar de Ginai Attelé
27/04/17 3 Trot 20 000€ 2 875m Laval Daddy Cut 1'16"9 Attelé
27/04/17 1 Trot 21 000€ 2 875m Laval Easy Cash 1'19"7 Attelé
05/05/17 D Trot 30 000€ 2 875m Laval Santiago d'Ete Attelé
05/05/17 D Trot 18 000€ 2 875m Laval Bayokos Atout Attelé
05/05/17 1 Trot 18 000€ 2 875m Laval Claudius 1'15"6 Attelé
05/05/17 1 Trot 18 000€ 2 875m Laval Doff Jim 1'17"2 Attelé
05/05/17 1 Trot 18 000€ 2 875m Laval Edite Gede 1'18"0 Attelé
07/06/17 0 Trot 90 000€ 2 875m Laval Urgos du Cedre Attelé lire

Après avoir figuré, a nettement faibli dans la phase finale.

07/06/17 D Trot 21 000€ 2 900m Laval Cherif Griff Attelé lire

Après avoir figuré, a conclu correctement pour prendre la quatrième place mais, pas au trot.

07/06/17 6 Trot 20 000€ 2 875m Laval Defi du Granit 1'15"6 Attelé lire

A rejoint les animateurs aux tribunes, puis a faibli nettement dans la phase finale.

16/06/17 1 Trot 25 000€ 2 875m Laval Brio de Faverol 1'14"6 Attelé
16/06/17 5 Trot 20 000€ 2 875m Laval Chuck de Larchamp 1'14"8 Attelé
16/06/17 8 Trot 20 000€ 2 875m Laval Candela Gede 1'16"1 Attelé
16/06/17 D Trot 19 000€ 2 875m Laval Dryas du Goutier Attelé
16/06/17 7 Trot 19 000€ 2 875m Laval Deveria 1'16"1 Attelé
16/06/17 D Trot 19 000€ 2 875m Laval Esteban Caballo Attelé
28/06/17 D Trot 18 000€ 2 875m Laval Eternal Flame Attelé
28/06/17 D Trot 21 000€ 2 875m Laval Cimarron Attelé
28/06/17 4 Trot 21 000€ 2 875m Laval Dream des Rioults 1'16"6 Attelé
28/06/17 2 Trot 25 000€ 2 875m Laval Baraka de Bougy 1'14"6 Attelé
29/08/17 0 Trot 25 000€ 2 875m Laval Anoa Attelé
29/08/17 5 Trot 18 000€ 2 875m Laval Cadence Del Fretta 1'14"6 Attelé
29/08/17 7 Trot 20 000€ 2 875m Laval Darling Merite 1'16"0 Attelé
29/08/17 4 Trot 19 000€ 2 875m Laval Epsom Speed 1'17"3 Attelé
01/09/17 D Trot 13 000€ 2 875m Laval Etoile du Granit Attelé
01/09/17 3 Trot 18 000€ 2 875m Laval Cocaan de Guegue 1'15"8 Attelé